Time;durP1;ratioP1;P1;durP2;ratioP2;P2;SDS_P1;SDS_P2;PMS_P1;PMS_P2;Temp;Humidity;BMP_temperature;BMP_pressure;BME280_temperature;BME280_humidity;BME280_pressure;Samples;Min_cycle;Max_cycle;Signal;HPM_P1;HPM_P2
2021/11/21 00:01:15;;;;;;;43.72;27.30;;;7.00;99.90;;;;;;6154191;23;20104;-80
2021/11/21 00:03:42;;;;;;;48.38;26.45;;;7.00;99.90;;;;;;6153853;23;20096;-81
2021/11/21 00:06:10;;;;;;;41.00;26.50;;;7.20;99.90;;;;;;6128429;23;20028;-82
2021/11/21 00:08:37;;;;;;;49.22;28.92;;;7.50;99.90;;;;;;6153896;23;20033;-81
2021/11/21 00:11:04;;;;;;;47.75;28.90;;;7.60;99.90;;;;;;6128143;23;20511;-80
2021/11/21 00:13:32;;;;;;;51.65;29.00;;;8.00;99.90;;;;;;6153547;23;20052;-81
2021/11/21 00:16:00;;;;;;;46.50;28.02;;;8.10;99.90;;;;;;6116861;23;20025;-83
2021/11/21 00:18:28;;;;;;;47.63;28.98;;;8.10;99.90;;;;;;6128001;23;20021;-82
2021/11/21 00:20:55;;;;;;;56.28;30.05;;;8.10;99.90;;;;;;6152790;23;20044;-81
2021/11/21 00:23:23;;;;;;;51.53;30.98;;;8.10;99.90;;;;;;6127668;23;20025;-80
2021/11/21 00:25:50;;;;;;;51.22;31.17;;;8.30;99.90;;;;;;6154393;23;20447;-81
2021/11/21 00:28:18;;;;;;;40.95;26.58;;;8.40;99.90;;;;;;6103870;23;20056;-79
2021/11/21 00:30:48;;;;;;;51.97;30.20;;;8.30;99.90;;;;;;6154806;23;20660;-81
2021/11/21 00:33:15;;;;;;;50.92;30.80;;;7.70;99.90;;;;;;6128772;23;20406;-83
2021/11/21 00:35:42;;;;;;;44.70;29.55;;;7.40;99.90;;;;;;6103314;23;20025;-81
2021/11/21 00:38:10;;;;;;;45.47;28.13;;;7.80;99.90;;;;;;6154535;23;20045;-80
2021/11/21 00:40:37;;;;;;;47.53;26.83;;;7.90;99.90;;;;;;6128200;23;20101;-80
2021/11/21 00:43:04;;;;;;;47.17;27.48;;;8.00;99.90;;;;;;6154198;23;20096;-81
2021/11/21 00:45:32;;;;;;;38.88;24.58;;;8.00;99.90;;;;;;6103726;23;20017;-80
2021/11/21 00:47:59;;;;;;;40.45;25.05;;;8.10;99.90;;;;;;6154430;23;20017;-78
2021/11/21 00:50:29;;;;;;;41.50;25.23;;;8.20;99.90;;;;;;6127994;23;20025;-80
2021/11/21 00:53:05;;;;;;;38.92;25.13;;;8.10;99.90;;;;;;6154246;23;20045;-82
2021/11/21 00:55:40;;;;;;;34.97;24.73;;;7.90;99.90;;;;;;6154051;23;20021;-81
2021/11/21 00:58:10;;;;;;;37.50;22.60;;;7.90;99.90;;;;;;6128043;23;20514;-81
2021/11/21 01:00:40;;;;;;;38.25;23.70;;;8.00;99.90;;;;;;6154217;23;20025;-81
2021/11/21 01:03:09;;;;;;;31.48;20.95;;;7.90;99.90;;;;;;6128024;23;20026;-80
2021/11/21 01:05:36;;;;;;;40.67;22.08;;;7.80;99.90;;;;;;6154371;23;20014;-80
2021/11/21 01:08:04;;;;;;;30.05;21.95;;;7.70;99.90;;;;;;6127569;23;20025;-80
2021/11/21 01:10:32;;;;;;;35.53;22.33;;;7.70;99.90;;;;;;6127861;23;20037;-81
2021/11/21 01:13:00;;;;;;;39.45;23.35;;;7.80;99.90;;;;;;6127931;23;20147;-81
2021/11/21 01:15:28;;;;;;;37.30;23.67;;;7.80;99.90;;;;;;6128520;23;20045;-80
2021/11/21 01:17:56;;;;;;;34.80;23.58;;;7.70;99.90;;;;;;6127952;23;20415;-82
2021/11/21 01:20:27;;;;;;;42.85;25.92;;;7.70;99.90;;;;;;6154020;23;20021;-81
2021/11/21 01:22:55;;;;;;;40.17;25.80;;;7.70;99.90;;;;;;6128095;23;20352;-80
2021/11/21 01:25:23;;;;;;;40.63;25.80;;;7.40;99.90;;;;;;6154398;23;20088;-81
2021/11/21 01:27:50;;;;;;;45.95;25.33;;;7.50;99.90;;;;;;6127815;23;20459;-81
2021/11/21 01:30:21;;;;;;;41.58;24.25;;;7.60;99.90;;;;;;6153971;23;20013;-80
2021/11/21 01:32:49;;;;;;;38.75;24.38;;;7.60;99.90;;;;;;6103922;23;20041;-81
2021/11/21 01:35:16;;;;;;;33.90;21.50;;;7.60;99.90;;;;;;6154422;23;20021;-82
2021/11/21 01:37:44;;;;;;;41.75;21.05;;;7.70;99.90;;;;;;6128255;23;20017;-80
2021/11/21 01:40:13;;;;;;;43.20;19.65;;;7.60;99.90;;;;;;6154272;23;20423;-82
2021/11/21 01:42:41;;;;;;;23.05;17.05;;;7.60;99.90;;;;;;6153632;23;20022;-79
2021/11/21 01:45:09;;;;;;;26.38;18.20;;;7.40;99.90;;;;;;6154023;23;20037;-84
2021/11/21 01:47:43;;;;;;;30.48;18.15;;;7.40;99.90;;;;;;6127952;23;20699;-78
2021/11/21 01:50:15;;;;;;;30.08;19.42;;;7.50;99.90;;;;;;6153488;23;20447;-81
2021/11/21 01:52:43;;;;;;;41.30;22.83;;;7.50;99.90;;;;;;6153569;23;20017;-80
2021/11/21 01:55:11;;;;;;;46.17;25.58;;;7.40;99.90;;;;;;6127890;23;20025;-80
2021/11/21 01:57:38;;;;;;;44.58;27.48;;;7.30;99.90;;;;;;6153547;23;20048;-82
2021/11/21 02:00:11;;;;;;;32.20;21.00;;;7.10;99.90;;;;;;6128685;23;20340;-79
2021/11/21 02:02:39;;;;;;;33.65;20.67;;;6.90;99.90;;;;;;6127979;23;20104;-80
2021/11/21 02:05:08;;;;;;;39.58;21.42;;;7.00;99.90;;;;;;6103818;23;20321;-80
2021/11/21 02:07:35;;;;;;;40.67;21.73;;;7.00;99.90;;;;;;6127430;23;20113;-83
2021/11/21 02:10:05;;;;;;;36.15;21.77;;;7.00;99.90;;;;;;6154209;23;20049;-79
2021/11/21 02:12:33;;;;;;;44.03;23.73;;;7.00;99.90;;;;;;6153464;23;20064;-78
2021/11/21 02:15:00;;;;;;;41.10;23.98;;;6.90;99.90;;;;;;6128089;23;20056;-80
2021/11/21 02:17:29;;;;;;;47.88;27.33;;;7.10;99.90;;;;;;6153763;23;20100;-81
2021/11/21 02:19:58;;;;;;;42.80;26.00;;;7.20;99.90;;;;;;6127962;23;20055;-80
2021/11/21 02:22:25;;;;;;;40.65;25.02;;;7.20;99.90;;;;;;6127791;23;20485;-81
2021/11/21 02:24:52;;;;;;;39.08;23.33;;;7.30;99.90;;;;;;6127930;23;20363;-81
2021/11/21 02:27:27;;;;;;;44.75;27.95;;;7.20;99.90;;;;;;6127874;23;20022;-79
2021/11/21 02:29:55;;;;;;;45.60;27.70;;;7.20;99.90;;;;;;6103655;23;20387;-81
2021/11/21 02:32:23;;;;;;;55.03;30.77;;;6.90;99.90;;;;;;6127239;23;20505;-81
2021/11/21 02:34:50;;;;;;;51.90;32.65;;;7.10;99.90;;;;;;6103766;23;20105;-80
2021/11/21 02:37:18;;;;;;;55.35;32.53;;;6.90;99.90;;;;;;6153843;23;20175;-78
2021/11/21 02:39:45;;;;;;;54.55;31.70;;;6.80;99.90;;;;;;6153784;23;20037;-78
2021/11/21 02:42:36;;;;;;;50.38;32.15;;;6.70;99.90;;;;;;6153935;23;20014;-81
2021/11/21 02:45:21;;;;;;;52.45;30.08;;;6.50;99.90;;;;;;6128312;23;20096;-80
2021/11/21 02:47:49;;;;;;;53.13;31.98;;;6.50;99.90;;;;;;6127795;23;20159;-81
2021/11/21 02:50:19;;;;;;;42.05;28.65;;;6.60;99.90;;;;;;6128147;23;20347;-81
2021/11/21 02:52:48;;;;;;;43.72;28.35;;;6.50;99.90;;;;;;6127746;23;20018;-80
2021/11/21 02:55:16;;;;;;;44.92;28.00;;;6.50;99.90;;;;;;6127677;23;20028;-79
2021/11/21 02:57:44;;;;;;;37.47;26.73;;;6.40;99.90;;;;;;6153472;23;20017;-79
2021/11/21 03:00:14;;;;;;;44.60;28.83;;;6.20;99.90;;;;;;6127578;23;20052;-81
2021/11/21 03:02:45;;;;;;;41.80;29.33;;;6.00;99.90;;;;;;6127961;23;20100;-80
2021/11/21 03:05:14;;;;;;;45.80;29.13;;;6.10;99.90;;;;;;6155653;23;20017;-81
2021/11/21 03:07:42;;;;;;;50.63;29.80;;;6.20;99.90;;;;;;6154998;23;20037;-82
2021/11/21 03:10:14;;;;;;;43.20;27.67;;;6.30;99.90;;;;;;6105368;23;20035;-81
2021/11/21 03:12:42;;;;;;;37.45;24.27;;;6.50;99.90;;;;;;6129097;23;20045;-81
2021/11/21 03:15:10;;;;;;;33.83;22.30;;;6.40;99.90;;;;;;6155784;23;20014;-81
2021/11/21 03:17:39;;;;;;;37.72;21.45;;;6.30;99.90;;;;;;6155540;23;20044;-83
2021/11/21 03:20:07;;;;;;;32.38;21.58;;;6.20;99.90;;;;;;6155098;23;20101;-85
2021/11/21 03:22:34;;;;;;;32.72;21.20;;;6.10;99.90;;;;;;6155894;23;20022;-81
2021/11/21 03:25:01;;;;;;;30.85;20.92;;;6.30;99.90;;;;;;6155422;23;20092;-80
2021/11/21 03:27:29;;;;;;;27.00;20.33;;;6.30;99.90;;;;;;6155144;23;20021;-79
2021/11/21 03:29:56;;;;;;;33.95;21.65;;;6.40;99.90;;;;;;6155555;23;20020;-81
2021/11/21 03:32:23;;;;;;;37.58;21.40;;;6.10;99.90;;;;;;6104672;23;20101;-79
2021/11/21 03:34:51;;;;;;;35.80;23.33;;;5.90;99.90;;;;;;6105210;23;20025;-80
2021/11/21 03:37:18;;;;;;;34.25;22.15;;;6.00;99.90;;;;;;6154965;23;20027;-80
2021/11/21 03:39:45;;;;;;;34.80;21.85;;;6.20;99.90;;;;;;6155454;23;20025;-81
2021/11/21 03:42:12;;;;;;;32.63;22.35;;;6.30;99.90;;;;;;6155224;23;20017;-80
2021/11/21 03:44:40;;;;;;;26.80;18.98;;;6.10;99.90;;;;;;6129241;23;20100;-81
2021/11/21 03:47:07;;;;;;;22.60;15.20;;;6.00;99.90;;;;;;6128751;23;20463;-81
2021/11/21 03:49:34;;;;;;;22.70;15.15;;;6.10;99.90;;;;;;6155546;23;20403;-81
2021/11/21 03:52:02;;;;;;;17.92;13.98;;;6.00;99.90;;;;;;6154832;23;20022;-79
2021/11/21 03:54:30;;;;;;;20.98;13.70;;;5.90;99.90;;;;;;6129541;23;20021;-80
2021/11/21 03:56:58;;;;;;;19.42;14.50;;;6.00;99.90;;;;;;6155178;23;20020;-79
2021/11/21 03:59:25;;;;;;;20.15;13.60;;;6.00;99.90;;;;;;6155412;23;20024;-81
2021/11/21 04:01:55;;;;;;;17.23;12.98;;;5.90;99.90;;;;;;6154442;23;20487;-81
2021/11/21 04:04:23;;;;;;;17.90;13.30;;;5.90;99.90;;;;;;6155266;23;20041;-80
2021/11/21 04:06:51;;;;;;;19.73;13.88;;;6.00;99.90;;;;;;6128691;23;20017;-81
2021/11/21 04:09:18;;;;;;;17.83;13.55;;;6.10;99.90;;;;;;6104879;23;20101;-81
2021/11/21 04:11:45;;;;;;;20.63;13.77;;;6.20;99.90;;;;;;6128821;23;20044;-81
2021/11/21 04:14:13;;;;;;;20.60;14.07;;;6.10;99.90;;;;;;6128640;23;20032;-80
2021/11/21 04:16:40;;;;;;;19.30;13.50;;;6.00;99.90;;;;;;6104263;23;20080;-80
2021/11/21 04:19:09;;;;;;;22.35;14.15;;;6.00;99.90;;;;;;6155807;23;20048;-81
2021/11/21 04:21:36;;;;;;;21.70;14.73;;;5.80;99.90;;;;;;6129163;23;20025;-80
2021/11/21 04:24:06;;;;;;;20.35;14.60;;;6.10;99.90;;;;;;6154372;23;20018;-81
2021/11/21 04:26:33;;;;;;;20.27;14.25;;;6.10;99.90;;;;;;6129169;23;20410;-79
2021/11/21 04:29:00;;;;;;;20.05;15.52;;;6.10;99.90;;;;;;6154694;23;20456;-79
2021/11/21 04:31:28;;;;;;;22.52;15.43;;;6.10;99.90;;;;;;6154466;23;20406;-79
2021/11/21 04:33:55;;;;;;;23.45;15.25;;;6.00;99.90;;;;;;6154391;23;20343;-78
2021/11/21 04:36:23;;;;;;;22.35;16.45;;;5.90;99.90;;;;;;6154445;23;20039;-80
2021/11/21 04:38:50;;;;;;;23.33;17.20;;;5.90;99.90;;;;;;6128674;23;20063;-79
2021/11/21 04:41:17;;;;;;;22.75;16.75;;;5.90;99.90;;;;;;6128319;23;20387;-79
2021/11/21 04:43:44;;;;;;;23.02;17.20;;;5.80;99.90;;;;;;6154566;23;20391;-80
2021/11/21 04:46:12;;;;;;;22.40;16.58;;;5.80;99.90;;;;;;6154625;23;20017;-77
2021/11/21 04:48:39;;;;;;;24.75;16.52;;;5.90;99.90;;;;;;6154546;23;20388;-79
2021/11/21 04:51:07;;;;;;;23.05;17.10;;;5.90;99.90;;;;;;6104075;23;20044;-80
2021/11/21 04:53:34;;;;;;;21.83;16.13;;;5.90;99.90;;;;;;6128095;23;20025;-80
2021/11/21 04:56:01;;;;;;;28.08;16.90;;;5.90;99.90;;;;;;6128594;23;20097;-80
2021/11/21 04:58:28;;;;;;;24.63;16.52;;;5.90;99.90;;;;;;6154179;23;20100;-80
2021/11/21 05:00:56;;;;;;;23.45;15.93;;;5.90;99.90;;;;;;6127837;23;20017;-79
2021/11/21 05:03:23;;;;;;;25.55;16.52;;;5.80;99.90;;;;;;6128823;23;20089;-79
2021/11/21 05:05:51;;;;;;;26.48;16.88;;;5.80;99.90;;;;;;6154207;23;20466;-79
2021/11/21 05:08:18;;;;;;;28.77;19.05;;;5.60;99.90;;;;;;6153809;23;20025;-79
2021/11/21 05:10:45;;;;;;;22.85;17.55;;;5.70;99.90;;;;;;6154661;23;20017;-80
2021/11/21 05:13:12;;;;;;;26.88;16.83;;;5.60;99.90;;;;;;6154663;23;20064;-80
2021/11/21 05:15:40;;;;;;;28.65;18.77;;;5.70;99.90;;;;;;6128330;23;20028;-82
2021/11/21 05:18:07;;;;;;;27.65;18.00;;;5.70;99.90;;;;;;6128253;23;20031;-80
2021/11/21 05:20:35;;;;;;;27.10;16.58;;;5.60;99.90;;;;;;6128509;23;20027;-79
2021/11/21 05:23:03;;;;;;;25.92;17.50;;;5.60;99.90;;;;;;6128223;23;20451;-79
2021/11/21 05:25:30;;;;;;;24.98;16.45;;;5.60;99.90;;;;;;6128626;23;20105;-81
2021/11/21 05:27:57;;;;;;;20.95;15.60;;;5.60;99.90;;;;;;6153744;23;20032;-81
2021/11/21 05:30:25;;;;;;;25.58;15.60;;;5.60;99.90;;;;;;6154551;23;20405;-80
2021/11/21 05:32:52;;;;;;;22.20;16.67;;;5.80;99.90;;;;;;6154428;23;20093;-78
2021/11/21 05:35:19;;;;;;;24.17;17.02;;;5.50;99.90;;;;;;6128647;23;20101;-79
2021/11/21 05:37:49;;;;;;;25.77;17.08;;;5.60;99.90;;;;;;6154119;23;20017;-81
2021/11/21 05:40:18;;;;;;;27.33;17.48;;;5.80;99.90;;;;;;6104576;23;20026;-83
2021/11/21 05:42:45;;;;;;;24.40;16.50;;;5.80;99.90;;;;;;6154345;23;20072;-80
2021/11/21 05:45:13;;;;;;;27.65;17.20;;;5.60;99.90;;;;;;6104146;23;20036;-78
2021/11/21 05:47:43;;;;;;;28.45;18.35;;;5.60;99.90;;;;;;6127696;23;20069;-81
2021/11/21 05:50:13;;;;;;;29.98;18.52;;;5.60;99.90;;;;;;6128281;23;20390;-82
2021/11/21 05:52:46;;;;;;;25.70;17.15;;;5.60;99.90;;;;;;6154273;23;20022;-80
2021/11/21 05:55:15;;;;;;;29.33;19.75;;;5.60;99.90;;;;;;6154403;23;20033;-78
2021/11/21 05:57:43;;;;;;;31.35;18.08;;;5.60;99.90;;;;;;6153812;23;20022;-80
2021/11/21 06:00:14;;;;;;;25.40;18.45;;;5.60;99.90;;;;;;6154280;23;20036;-80
2021/11/21 06:02:42;;;;;;;29.83;18.17;;;5.60;99.90;;;;;;6127893;23;20021;-81
2021/11/21 06:05:10;;;;;;;29.48;20.08;;;5.70;99.90;;;;;;6153946;23;20018;-81
2021/11/21 06:07:37;;;;;;;31.42;20.17;;;5.70;99.90;;;;;;6122972;23;20030;-83
2021/11/21 06:10:06;;;;;;;32.00;19.90;;;5.80;99.90;;;;;;6125220;23;20085;-81
2021/11/21 06:12:34;;;;;;;27.50;19.58;;;5.60;99.90;;;;;;6124629;23;20014;-82
2021/11/21 06:15:05;;;;;;;;;;;5.60;99.90;;;;;;6099842;23;20026;-81
2021/11/21 06:17:33;;;;;;;27.50;19.13;;;5.60;99.90;;;;;;6122122;23;19955;-80
2021/11/21 06:20:00;;;;;;;30.10;21.30;;;5.80;99.90;;;;;;6123173;23;20409;-80
2021/11/21 06:22:27;;;;;;;31.73;21.65;;;5.90;99.90;;;;;;6124707;23;20021;-82
2021/11/21 06:24:55;;;;;;;33.83;23.10;;;5.80;99.90;;;;;;6124421;23;20022;-77
2021/11/21 06:27:22;;;;;;;44.53;25.08;;;5.80;99.90;;;;;;6124337;23;20551;-79
2021/11/21 06:29:50;;;;;;;41.78;27.38;;;5.80;99.90;;;;;;6124161;23;20081;-79
2021/11/21 06:32:17;;;;;;;36.55;25.50;;;5.90;99.90;;;;;;6098300;23;20484;-80
2021/11/21 06:34:44;;;;;;;35.65;24.70;;;5.90;99.90;;;;;;6124889;23;20026;-80
2021/11/21 06:37:12;;;;;;;31.58;21.02;;;5.90;99.90;;;;;;6064124;23;20041;-81
2021/11/21 06:39:40;;;;;;;57.92;34.95;;;6.20;99.90;;;;;;6026991;23;20025;-79
2021/11/21 06:42:11;;;;;;;84.28;48.20;;;6.70;99.90;;;;;;6100987;23;20336;-78
2021/11/21 06:44:39;;;;;;;49.28;30.90;;;6.80;99.90;;;;;;6097360;23;20022;-79
2021/11/21 06:47:07;;;;;;;24.70;18.33;;;6.80;99.90;;;;;;6095344;23;20018;-79
2021/11/21 06:49:35;;;;;;;31.55;20.67;;;6.60;99.90;;;;;;6096880;23;20022;-76
2021/11/21 06:52:03;;;;;;;35.53;23.80;;;6.50;99.90;;;;;;6097024;23;20094;-77
2021/11/21 06:54:31;;;;;;;24.98;17.52;;;7.00;99.90;;;;;;6097156;23;20045;-81
2021/11/21 06:56:59;;;;;;;24.95;16.00;;;6.90;99.90;;;;;;6082476;23;20093;-78
2021/11/21 06:59:26;;;;;;;23.95;15.60;;;6.30;99.90;;;;;;6089682;23;20085;-79
2021/11/21 07:01:54;;;;;;;28.00;16.42;;;6.30;99.90;;;;;;6093513;23;20018;-77
2021/11/21 07:04:21;;;;;;;22.45;15.35;;;6.20;99.90;;;;;;6094208;23;20404;-77
2021/11/21 07:06:48;;;;;;;20.60;15.77;;;6.40;99.90;;;;;;6104790;23;20068;-75
2021/11/21 07:09:18;;;;;;;24.98;16.77;;;6.60;99.90;;;;;;6124103;23;20017;-79
2021/11/21 07:11:47;;;;;;;20.83;14.85;;;6.70;99.90;;;;;;6121892;23;20024;-79
2021/11/21 07:14:15;;;;;;;25.60;16.45;;;6.40;99.90;;;;;;6099862;23;20030;-79
2021/11/21 07:16:50;;;;;;;21.42;14.98;;;6.60;99.90;;;;;;6099381;23;20077;-79
2021/11/21 07:19:17;;;;;;;21.83;15.95;;;7.00;99.90;;;;;;6098999;23;20022;-78
2021/11/21 07:21:45;;;;;;;22.40;15.68;;;7.20;99.90;;;;;;6074030;23;20045;-79
2021/11/21 07:24:13;;;;;;;25.05;16.85;;;7.30;99.90;;;;;;6098723;23;20052;-79
2021/11/21 07:26:41;;;;;;;22.45;17.58;;;7.50;99.90;;;;;;6074557;23;20447;-78
2021/11/21 07:29:08;;;;;;;24.77;17.33;;;7.60;99.90;;;;;;6098788;23;20054;-82
2021/11/21 07:31:36;;;;;;;25.55;17.40;;;7.20;99.90;;;;;;6099732;23;20352;-81
2021/11/21 07:34:04;;;;;;;22.70;17.35;;;7.20;99.90;;;;;;6095531;23;20451;-79
2021/11/21 07:36:32;;;;;;;26.00;18.40;;;7.40;99.90;;;;;;6125075;23;20053;-78
2021/11/21 07:39:00;;;;;;;29.27;18.88;;;7.80;99.90;;;;;;6124582;23;20068;-78
2021/11/21 07:41:30;;;;;;;22.95;18.50;;;7.90;99.90;;;;;;6124508;23;20036;-80
2021/11/21 07:43:57;;;;;;;25.02;19.42;;;8.40;99.90;;;;;;6124775;23;20546;-78
2021/11/21 07:46:26;;;;;;;26.05;17.95;;;8.60;99.90;;;;;;6072704;23;20101;-80
2021/11/21 07:48:54;;;;;;;30.42;19.58;;;8.60;99.90;;;;;;6124624;23;20496;-77
2021/11/21 07:51:22;;;;;;;28.17;18.70;;;8.70;99.90;;;;;;6099187;23;20045;-76
2021/11/21 07:53:50;;;;;;;31.02;19.15;;;9.00;99.90;;;;;;6099004;23;20053;-78
2021/11/21 07:56:23;;;;;;;31.33;19.98;;;9.10;99.90;;;;;;6123182;23;20035;-77
2021/11/21 07:58:56;;;;;;;33.08;20.73;;;9.50;99.90;;;;;;6097536;23;20029;-80
2021/11/21 08:01:27;;;;;;;35.45;22.08;;;9.70;99.90;;;;;;6076374;23;20044;-80
2021/11/21 08:03:55;;;;;;;32.70;22.10;;;9.80;99.90;;;;;;6098093;23;20035;-79
2021/11/21 08:06:27;;;;;;;33.00;21.23;;;9.90;99.90;;;;;;6125348;23;20069;-80
2021/11/21 08:09:03;;;;;;;31.55;22.33;;;9.60;99.90;;;;;;6123528;23;20530;-81
2021/11/21 08:11:32;;;;;;;39.63;23.98;;;9.90;99.90;;;;;;6123178;23;20195;-81
2021/11/21 08:14:00;;;;;;;39.30;25.40;;;10.20;99.90;;;;;;6124743;23;20344;-81
2021/11/21 08:16:29;;;;;;;43.53;25.90;;;10.20;99.90;;;;;;6099759;23;20026;-87
2021/11/21 08:19:02;;;;;;;;;;;10.90;99.90;;;;;;6126096;23;20028;-81
2021/11/21 08:21:39;;;;;;;109.95;62.67;;;11.70;99.90;;;;;;6122211;23;19921;-82
2021/11/21 08:24:08;;;;;;;45.33;31.00;;;12.10;99.90;;;;;;6098039;23;20025;-77
2021/11/21 08:26:37;;;;;;;31.25;23.52;;;11.40;99.90;;;;;;6098155;23;20048;-77
2021/11/21 08:29:08;;;;;;;38.63;22.70;;;11.40;99.90;;;;;;6098193;23;20026;-80
2021/11/21 08:32:00;;;;;;;35.67;21.52;;;11.20;99.90;;;;;;6102613;23;20018;-80
2021/11/21 08:34:29;;;;;;;37.03;22.90;;;10.60;99.90;;;;;;6095770;23;20026;-81
2021/11/21 08:37:03;;;;;;;34.78;23.88;;;11.30;99.90;;;;;;6124124;23;20708;-80
2021/11/21 08:39:30;;;;;;;36.67;23.80;;;11.50;99.90;;;;;;6100217;23;20022;-83
2021/11/21 08:41:57;;;;;;;35.55;24.10;;;10.70;99.90;;;;;;6123025;23;20022;-86
2021/11/21 08:44:25;;;;;;;36.90;25.23;;;11.10;99.90;;;;;;6098126;23;20105;-84
2021/11/21 08:46:53;;;;;;;37.17;23.13;;;11.40;99.90;;;;;;6124095;23;20400;-79
2021/11/21 08:49:20;;;;;;;38.85;25.42;;;11.50;99.90;;;;;;6072381;23;20022;-82
2021/11/21 08:51:48;;;;;;;42.33;27.52;;;11.80;99.90;;;;;;6123690;23;20048;-84
2021/11/21 08:54:16;;;;;;;45.03;27.30;;;12.00;99.90;;;;;;6122919;23;20038;-80
2021/11/21 08:56:45;;;;;;;45.10;27.48;;;12.10;99.90;;;;;;6119432;23;20026;-80
2021/11/21 08:59:13;;;;;;;42.10;27.08;;;12.40;99.90;;;;;;6124535;23;20089;-83
2021/11/21 09:01:42;;;;;;;39.67;24.20;;;12.70;99.90;;;;;;6099423;23;20356;-81
2021/11/21 09:04:11;;;;;;;42.00;25.52;;;12.80;99.90;;;;;;6098648;23;20025;-86
2021/11/21 09:06:38;;;;;;;35.95;23.30;;;12.70;99.90;;;;;;6122985;23;20053;-82
2021/11/21 09:09:06;;;;;;;34.78;23.38;;;12.90;99.90;;;;;;6120270;23;20404;-83
2021/11/21 09:11:35;;;;;;;35.30;23.75;;;12.90;99.90;;;;;;6147238;23;20088;-85
2021/11/21 09:14:21;;;;;;;101.82;61.75;;;13.20;99.90;;;;;;6077313;23;20026;-84
2021/11/21 09:16:48;;;;;;;102.10;61.30;;;13.70;99.90;;;;;;6098717;23;20105;-82
2021/11/21 09:19:19;;;;;;;40.22;28.25;;;13.90;99.30;;;;;;6098679;23;20248;-82
2021/11/21 09:21:52;;;;;;;36.10;24.20;;;13.70;99.60;;;;;;6096605;23;20022;-82
2021/11/21 09:24:22;;;;;;;33.17;22.60;;;13.90;99.40;;;;;;6124225;23;20021;-83
2021/11/21 09:26:49;;;;;;;33.03;22.08;;;13.80;99.10;;;;;;6076304;23;20045;-88
2021/11/21 09:29:28;;;;;;;34.25;23.52;;;13.50;99.70;;;;;;6130054;23;20515;-85
2021/11/21 09:31:56;;;;;;;37.47;23.75;;;13.20;99.90;;;;;;6120685;23;20022;-80
2021/11/21 09:34:27;;;;;;;35.08;23.98;;;13.60;99.80;;;;;;6098433;23;20034;-84
2021/11/21 09:36:54;;;;;;;33.42;22.92;;;13.60;99.90;;;;;;6129213;23;20017;-86
2021/11/21 09:39:22;;;;;;;31.55;22.67;;;13.70;99.60;;;;;;6101992;23;20032;-82
2021/11/21 09:41:50;;;;;;;36.85;24.27;;;14.30;98.90;;;;;;6127071;23;20022;-91
2021/11/21 09:44:18;;;;;;;91.47;53.58;;;14.80;97.50;;;;;;6099218;23;20018;-81
2021/11/21 09:46:46;;;;;;;34.88;25.05;;;14.70;98.70;;;;;;6124533;23;20110;-84
2021/11/21 09:49:15;;;;;;;45.08;27.92;;;15.00;97.30;;;;;;6124606;23;20018;-84
2021/11/21 09:51:44;;;;;;;37.67;25.67;;;15.60;98.10;;;;;;6124963;23;20021;-82
2021/11/21 09:54:14;;;;;;;32.85;22.35;;;16.10;96.10;;;;;;6125678;23;20089;-85
2021/11/21 09:56:43;;;;;;;27.10;18.20;;;16.00;95.30;;;;;;6125155;23;20470;-86
2021/11/21 09:59:11;;;;;;;31.55;18.63;;;15.50;94.80;;;;;;6125302;23;20468;-85
2021/11/21 10:01:41;;;;;;;26.80;17.52;;;14.90;96.90;;;;;;6099252;23;20049;-91
2021/11/21 10:04:12;;;;;;;24.60;17.00;;;15.40;95.70;;;;;;6101317;23;20048;-87
2021/11/21 10:06:45;;;;;;;25.85;18.35;;;15.50;94.80;;;;;;6100491;23;20356;-82
2021/11/21 10:09:18;;;;;;;27.98;17.52;;;15.90;95.20;;;;;;6150742;23;20093;-83
2021/11/21 10:12:07;;;;;;;26.05;16.58;;;16.40;94.30;;;;;;6099271;23;20101;-82
2021/11/21 10:14:57;;;;;;;26.92;18.45;;;16.10;93.50;;;;;;6150089;23;20033;-79
2021/11/21 10:17:27;;;;;;;26.98;17.75;;;16.70;93.90;;;;;;6126848;23;20089;-82
2021/11/21 10:20:16;;;;;;;25.10;17.40;;;16.80;92.90;;;;;;6126977;23;20563;-83
2021/11/21 10:22:52;;;;;;;24.23;16.73;;;16.50;92.80;;;;;;6100527;23;20030;-83
2021/11/21 10:25:44;;;;;;;30.38;22.10;;;14.50;97.30;;;;;;6080005;23;20022;-84
2021/11/21 10:28:31;;;;;;;58.85;39.13;;;15.50;95.90;;;;;;6101525;23;20022;-82
2021/11/21 10:31:19;;;;;;;76.78;47.75;;;16.70;93.80;;;;;;6099904;23;20021;-80
2021/11/21 10:33:51;;;;;;;89.10;55.95;;;16.00;93.00;;;;;;6099852;23;20021;-83
2021/11/21 10:36:30;;;;;;;29.27;20.65;;;15.90;93.20;;;;;;6117450;23;20028;-80
2021/11/21 10:39:02;;;;;;;24.15;16.52;;;16.20;92.80;;;;;;6119983;23;20477;-78
2021/11/21 10:41:37;;;;;;;23.45;15.88;;;16.50;92.20;;;;;;6125666;23;20073;-80
2021/11/21 10:44:10;;;;;;;24.15;14.73;;;16.10;92.60;;;;;;6125445;23;20022;-80
2021/11/21 10:46:52;;;;;;;22.95;15.27;;;16.20;92.30;;;;;;6126260;23;20041;-83
2021/11/21 10:49:33;;;;;;;23.17;14.60;;;16.80;92.50;;;;;;6126434;23;20094;-81
2021/11/21 10:52:02;;;;;;;22.17;14.45;;;17.40;91.20;;;;;;6100986;23;20393;-82
2021/11/21 10:54:33;;;;;;;19.03;13.40;;;17.40;90.90;;;;;;6127173;23;20021;-87
2021/11/21 10:57:06;;;;;;;23.02;13.32;;;17.10;90.00;;;;;;6101092;23;20030;-81
2021/11/21 10:59:51;;;;;;;20.00;13.68;;;16.60;91.50;;;;;;6104204;23;20329;-88
2021/11/21 11:02:24;;;;;;;57.53;36.85;;;17.20;90.90;;;;;;6130535;23;20528;-87
2021/11/21 11:05:16;;;;;;;102.72;64.13;;;18.30;90.40;;;;;;6104370;23;20422;-85
2021/11/21 11:07:46;;;;;;;47.60;30.70;;;18.70;87.40;;;;;;6101176;23;20093;-84
2021/11/21 11:10:15;;;;;;;31.20;19.77;;;17.90;86.50;;;;;;6101213;23;20080;-85
2021/11/21 11:12:45;;;;;;;26.40;17.88;;;18.00;86.10;;;;;;6127836;23;20041;-81
2021/11/21 11:15:14;;;;;;;27.98;17.02;;;18.30;84.80;;;;;;6129368;23;20048;-88
2021/11/21 11:17:42;;;;;;;21.50;15.27;;;18.80;84.70;;;;;;6128637;23;20024;-83
2021/11/21 11:20:13;;;;;;;20.95;15.20;;;18.90;82.70;;;;;;6127801;23;20044;-89
2021/11/21 11:22:40;;;;;;;22.75;13.75;;;19.10;81.70;;;;;;6128170;23;20013;-89
2021/11/21 11:25:12;;;;;;;20.55;14.13;;;18.50;83.00;;;;;;6131370;23;20097;-87
2021/11/21 11:27:58;;;;;;;22.63;13.55;;;18.30;83.20;;;;;;6129902;23;20018;-80
2021/11/21 11:30:34;;;;;;;17.88;12.80;;;17.70;82.40;;;;;;6077080;23;20033;-85
2021/11/21 11:33:16;;;;;;;16.23;11.75;;;17.40;86.30;;;;;;6125918;23;20018;-86
2021/11/21 11:35:53;;;;;;;17.90;11.55;;;18.20;83.40;;;;;;6148583;23;20451;-88
2021/11/21 11:38:28;;;;;;;16.40;10.98;;;18.60;82.90;;;;;;6127225;23;20511;-83
2021/11/21 11:40:56;;;;;;;18.25;10.52;;;18.10;80.00;;;;;;6128014;23;20014;-82
2021/11/21 11:43:31;;;;;;;16.63;11.63;;;18.00;82.20;;;;;;6125910;23;20050;-79
2021/11/21 11:46:06;;;;;;;18.08;11.60;;;18.50;81.90;;;;;;6125454;23;20022;-79
2021/11/21 11:48:51;;;;;;;18.50;10.40;;;19.00;80.90;;;;;;6099511;23;20042;-88
2021/11/21 11:51:27;;;;;;;12.80;8.70;;;18.40;78.20;;;;;;6125510;23;20052;-80
2021/11/21 11:53:56;;;;;;;15.35;9.98;;;18.30;79.40;;;;;;6126263;23;20351;-84
2021/11/21 11:56:29;;;;;;;16.20;10.95;;;17.80;79.80;;;;;;6100753;23;20085;-82
2021/11/21 11:58:59;;;;;;;37.28;25.23;;;18.60;78.60;;;;;;6130474;23;20044;-83
2021/11/21 12:01:37;;;;;;;27.42;17.75;;;19.10;79.00;;;;;;6104432;23;20022;-78
2021/11/21 12:04:28;;;;;;;24.25;16.95;;;18.90;78.20;;;;;;6100743;23;20048;-80
2021/11/21 12:07:00;;;;;;;20.52;12.55;;;19.40;76.70;;;;;;6098916;23;20033;-88
2021/11/21 12:09:32;;;;;;;17.88;9.82;;;18.90;75.70;;;;;;6125638;23;20038;-84
2021/11/21 12:12:04;;;;;;;14.70;10.25;;;19.00;75.50;;;;;;6126982;23;20018;-86
2021/11/21 12:14:34;;;;;;;16.05;9.75;;;19.00;75.10;;;;;;6125491;23;20072;-81
2021/11/21 12:17:25;;;;;;;17.08;10.95;;;19.20;75.30;;;;;;6124621;23;20046;-78
2021/11/21 12:20:01;;;;;;;15.88;11.45;;;20.20;75.10;;;;;;6075191;23;20022;-80
2021/11/21 12:22:37;;;;;;;24.50;14.07;;;20.20;73.60;;;;;;6099950;23;20026;-83
2021/11/21 12:25:09;;;;;;;17.50;11.98;;;20.00;72.30;;;;;;6125990;23;20409;-80
2021/11/21 12:27:44;;;;;;;78.15;52.90;;;20.20;73.30;;;;;;6075679;23;20041;-88
2021/11/21 12:30:17;;;;;;;71.40;47.28;;;19.60;74.30;;;;;;6100022;23;20032;-79
2021/11/21 12:33:02;;;;;;;46.40;31.55;;;20.30;73.50;;;;;;6126015;23;20388;-85
2021/11/21 12:35:48;;;;;;;22.73;16.40;;;20.10;73.10;;;;;;6100249;23;20021;-89
2021/11/21 12:38:21;;;;;;;29.58;20.17;;;20.60;71.10;;;;;;6152710;23;20030;-86
2021/11/21 12:40:55;;;;;;;45.70;31.33;;;24.10;63.40;;;;;;6101791;23;20508;-82
2021/11/21 12:43:24;;;;;;;141.45;95.90;;;26.50;56.00;;;;;;6075542;23;20110;-85
2021/11/21 12:45:53;;;;;;;24.27;17.98;;;25.70;53.80;;;;;;6124073;23;20044;-81
2021/11/21 12:48:25;;;;;;;21.65;14.80;;;24.30;55.40;;;;;;6124791;23;20034;-82